Maybole, United Kingdom
Current Conditions -  °F | °C
As of 8:20 AM on Saturday 25 Oct 2014 (Local Time) from EGPK Reporting Station
Light Rain Light Rain  
Wind Chill: 52°   Ceiling: 3000
Heat Index: 52°   Visibility: 6mi
Dew Point: 46°   Wind: 20mph
Humidity: 82%   Direction: 200°SSW
Pressure: 29.71"   Gusts: NA
Location:  55.36°N, 4.68°W
Report Text: EGPK 250720Z 20017KT 9999 -RA SCT020 BKN030 11/08 Q1006
Loading
Personal Weather Stations






























Interactive Weather Map New forecast layout! Learn more

10-Day Weather Forecast

Advertisements
Track Severe Weather on mobile